This is the latest recevied weather packets stored in our database for station/object F1DKL-13. If no packets are shown the sender has not sent any weather packets the latest 10 day(s).
| Time | Temp. | Humidity | Pressure | Rain* | Wind** | Luminosity | Snow |
|---|---|---|---|---|---|---|---|
| 1777362305 | 20° C | 33% | 1022.6 hPa | 0 mm | - | - | - |
| 1777362005 | 19.44° C | 33% | 1022.6 hPa | 0 mm | - | - | - |
| 1777361705 | 19.44° C | 35% | 1022.6 hPa | 0 mm | - | - | - |
| 1777361405 | 18.89° C | 37% | 1022.6 hPa | 0 mm | - | - | - |
| 1777361105 | 18.33° C | 37% | 1021.5 hPa | 0 mm | - | - | - |
| 1777360805 | 17.78° C | 37% | 1021.5 hPa | 0 mm | - | - | - |
| 1777360505 | 16.67° C | 40% | 1021.5 hPa | 0 mm | - | - | - |
| 1777332904 | 7.22° C | 48% | 1023.6 hPa | 0 mm | - | - | - |
| 1777332604 | 7.78° C | 48% | 1023.6 hPa | 0 mm | - | - | - |
| 1777332304 | 7.78° C | 48% | 1023.6 hPa | 0 mm | - | - | - |
| 1777332004 | 7.78° C | 48% | 1023.6 hPa | 0 mm | - | - | - |
| 1777331704 | 7.78° C | 48% | 1023.6 hPa | 0 mm | - | - | - |
| 1777331404 | 7.78° C | 47% | 1023.6 hPa | 0 mm | - | - | - |
| 1777331104 | 7.78° C | 47% | 1023.6 hPa | 0 mm | - | - | - |
| 1777330804 | 8.33° C | 46% | 1023.6 hPa | 0 mm | - | - | - |
| 1777330504 | 8.33° C | 46% | 1023.6 hPa | 0 mm | - | - | - |
| 1777330204 | 8.33° C | 47% | 1023.6 hPa | 0 mm | - | - | - |
| 1777329904 | 8.33° C | 45% | 1023.6 hPa | 0 mm | - | - | - |
| 1777329604 | 8.33° C | 44% | 1023.6 hPa | 0 mm | - | - | - |
| 1777329304 | 8.33° C | 43% | 1023.6 hPa | 0 mm | - | - | - |
| 1777329004 | 8.89° C | 42% | 1023.6 hPa | 0 mm | - | - | - |
| 1777328704 | 8.89° C | 42% | 1023.6 hPa | 0 mm | - | - | - |
| 1777328404 | 8.89° C | 42% | 1023.6 hPa | 0 mm | - | - | - |
| 1777328104 | 9.44° C | 41% | 1023.6 hPa | 0 mm | - | - | - |
| 1777327804 | 9.44° C | 42% | 1023.6 hPa | 0 mm | - | - | - |
* Rain latest hour (hover to see other rain measurements)
** Current wind speed in m/s (hover to see current wind gust speed)